sensor_id;sensor_type;location;lat;lon;timestamp;P1;durP1;ratioP1;P2;durP2;ratioP2
66487;SDS011;53304;54.550;18.526;2023-04-06T00:00:45;3.85;;;1.60;;
66487;SDS011;53304;54.550;18.526;2023-04-06T00:03:13;6.05;;;1.95;;
66487;SDS011;53304;54.550;18.526;2023-04-06T00:05:41;6.43;;;1.98;;
66487;SDS011;53304;54.550;18.526;2023-04-06T00:08:09;4.85;;;1.95;;
66487;SDS011;53304;54.550;18.526;2023-04-06T00:10:36;4.03;;;1.80;;
66487;SDS011;53304;54.550;18.526;2023-04-06T00:13:07;7.57;;;2.28;;
66487;SDS011;53304;54.550;18.526;2023-04-06T00:15:35;4.10;;;1.92;;
66487;SDS011;53304;54.550;18.526;2023-04-06T00:18:03;3.53;;;1.95;;
66487;SDS011;53304;54.550;18.526;2023-04-06T00:20:31;5.55;;;2.10;;
66487;SDS011;53304;54.550;18.526;2023-04-06T00:22:56;5.57;;;2.58;;
66487;SDS011;53304;54.550;18.526;2023-04-06T00:25:22;4.55;;;2.17;;
66487;SDS011;53304;54.550;18.526;2023-04-06T00:27:47;5.80;;;2.08;;
66487;SDS011;53304;54.550;18.526;2023-04-06T00:30:13;5.38;;;1.98;;
66487;SDS011;53304;54.550;18.526;2023-04-06T00:32:38;5.50;;;2.13;;
66487;SDS011;53304;54.550;18.526;2023-04-06T00:35:06;4.13;;;2.13;;
66487;SDS011;53304;54.550;18.526;2023-04-06T00:37:34;5.55;;;1.95;;
66487;SDS011;53304;54.550;18.526;2023-04-06T00:39:59;6.22;;;2.58;;
66487;SDS011;53304;54.550;18.526;2023-04-06T00:42:25;5.05;;;2.13;;
66487;SDS011;53304;54.550;18.526;2023-04-06T00:44:56;6.03;;;2.40;;
66487;SDS011;53304;54.550;18.526;2023-04-06T00:47:24;4.47;;;2.00;;
66487;SDS011;53304;54.550;18.526;2023-04-06T00:49:50;5.28;;;2.28;;
66487;SDS011;53304;54.550;18.526;2023-04-06T00:52:17;9.50;;;2.63;;
66487;SDS011;53304;54.550;18.526;2023-04-06T00:54:44;5.22;;;2.30;;
66487;SDS011;53304;54.550;18.526;2023-04-06T00:57:11;5.13;;;2.20;;
66487;SDS011;53304;54.550;18.526;2023-04-06T00:59:39;8.50;;;2.70;;
66487;SDS011;53304;54.550;18.526;2023-04-06T01:02:06;5.18;;;2.30;;
66487;SDS011;53304;54.550;18.526;2023-04-06T01:04:32;6.78;;;2.75;;
66487;SDS011;53304;54.550;18.526;2023-04-06T01:07:00;6.10;;;2.45;;
66487;SDS011;53304;54.550;18.526;2023-04-06T01:09:27;3.83;;;1.73;;
66487;SDS011;53304;54.550;18.526;2023-04-06T01:11:57;6.97;;;2.65;;
66487;SDS011;53304;54.550;18.526;2023-04-06T01:14:23;5.70;;;2.45;;
66487;SDS011;53304;54.550;18.526;2023-04-06T01:16:51;7.70;;;2.40;;
66487;SDS011;53304;54.550;18.526;2023-04-06T01:19:17;7.68;;;2.22;;
66487;SDS011;53304;54.550;18.526;2023-04-06T01:21:43;9.32;;;3.05;;
66487;SDS011;53304;54.550;18.526;2023-04-06T01:24:08;7.90;;;2.38;;
66487;SDS011;53304;54.550;18.526;2023-04-06T01:26:37;5.63;;;2.30;;
66487;SDS011;53304;54.550;18.526;2023-04-06T01:29:10;5.55;;;2.58;;
66487;SDS011;53304;54.550;18.526;2023-04-06T01:31:38;7.50;;;2.53;;
66487;SDS011;53304;54.550;18.526;2023-04-06T01:34:04;6.05;;;2.50;;
66487;SDS011;53304;54.550;18.526;2023-04-06T01:36:34;6.85;;;2.67;;
66487;SDS011;53304;54.550;18.526;2023-04-06T01:39:00;5.35;;;2.47;;
66487;SDS011;53304;54.550;18.526;2023-04-06T01:41:25;5.45;;;2.50;;
66487;SDS011;53304;54.550;18.526;2023-04-06T01:43:51;6.18;;;2.72;;
66487;SDS011;53304;54.550;18.526;2023-04-06T01:46:19;5.55;;;2.78;;
66487;SDS011;53304;54.550;18.526;2023-04-06T01:48:47;8.63;;;2.90;;
66487;SDS011;53304;54.550;18.526;2023-04-06T01:51:13;6.45;;;2.75;;
66487;SDS011;53304;54.550;18.526;2023-04-06T01:53:41;6.93;;;2.72;;
66487;SDS011;53304;54.550;18.526;2023-04-06T01:56:09;7.15;;;2.80;;
66487;SDS011;53304;54.550;18.526;2023-04-06T01:58:37;6.38;;;2.78;;
66487;SDS011;53304;54.550;18.526;2023-04-06T02:01:05;6.68;;;2.65;;
66487;SDS011;53304;54.550;18.526;2023-04-06T02:03:30;5.80;;;2.47;;
66487;SDS011;53304;54.550;18.526;2023-04-06T02:05:58;6.60;;;2.55;;
66487;SDS011;53304;54.550;18.526;2023-04-06T02:08:26;5.30;;;2.40;;
66487;SDS011;53304;54.550;18.526;2023-04-06T02:10:52;5.18;;;2.38;;
66487;SDS011;53304;54.550;18.526;2023-04-06T02:13:19;7.50;;;2.60;;
66487;SDS011;53304;54.550;18.526;2023-04-06T02:15:45;6.15;;;2.58;;
66487;SDS011;53304;54.550;18.526;2023-04-06T02:18:10;5.43;;;2.60;;
66487;SDS011;53304;54.550;18.526;2023-04-06T02:20:38;6.60;;;2.78;;
66487;SDS011;53304;54.550;18.526;2023-04-06T02:23:09;7.20;;;2.92;;
66487;SDS011;53304;54.550;18.526;2023-04-06T02:25:34;5.78;;;2.72;;
66487;SDS011;53304;54.550;18.526;2023-04-06T02:28:00;7.57;;;2.60;;
66487;SDS011;53304;54.550;18.526;2023-04-06T02:30:25;7.22;;;2.50;;
66487;SDS011;53304;54.550;18.526;2023-04-06T02:32:51;6.00;;;2.90;;
66487;SDS011;53304;54.550;18.526;2023-04-06T02:35:16;5.88;;;2.75;;
66487;SDS011;53304;54.550;18.526;2023-04-06T02:37:44;7.97;;;3.47;;
66487;SDS011;53304;54.550;18.526;2023-04-06T02:40:10;8.10;;;3.40;;
66487;SDS011;53304;54.550;18.526;2023-04-06T02:42:38;7.20;;;2.83;;
66487;SDS011;53304;54.550;18.526;2023-04-06T02:45:06;7.55;;;3.00;;
66487;SDS011;53304;54.550;18.526;2023-04-06T02:47:34;6.25;;;3.00;;
66487;SDS011;53304;54.550;18.526;2023-04-06T02:50:02;7.15;;;3.00;;
66487;SDS011;53304;54.550;18.526;2023-04-06T02:52:31;8.05;;;3.13;;
66487;SDS011;53304;54.550;18.526;2023-04-06T02:55:02;6.85;;;3.30;;
66487;SDS011;53304;54.550;18.526;2023-04-06T02:57:27;7.53;;;3.00;;
66487;SDS011;53304;54.550;18.526;2023-04-06T02:59:55;6.38;;;2.97;;
66487;SDS011;53304;54.550;18.526;2023-04-06T03:02:20;5.32;;;2.88;;
66487;SDS011;53304;54.550;18.526;2023-04-06T03:04:46;6.00;;;2.90;;
66487;SDS011;53304;54.550;18.526;2023-04-06T03:07:14;6.68;;;2.63;;
66487;SDS011;53304;54.550;18.526;2023-04-06T03:09:40;6.85;;;3.10;;
66487;SDS011;53304;54.550;18.526;2023-04-06T03:12:10;7.20;;;3.17;;
66487;SDS011;53304;54.550;18.526;2023-04-06T03:14:38;5.60;;;2.75;;
66487;SDS011;53304;54.550;18.526;2023-04-06T03:17:05;6.85;;;2.65;;
66487;SDS011;53304;54.550;18.526;2023-04-06T03:19:33;6.22;;;2.65;;
66487;SDS011;53304;54.550;18.526;2023-04-06T03:22:03;8.80;;;2.75;;
66487;SDS011;53304;54.550;18.526;2023-04-06T03:24:28;13.48;;;3.42;;
66487;SDS011;53304;54.550;18.526;2023-04-06T03:26:54;6.40;;;2.65;;
66487;SDS011;53304;54.550;18.526;2023-04-06T03:29:20;4.95;;;2.70;;
66487;SDS011;53304;54.550;18.526;2023-04-06T03:31:50;6.38;;;2.90;;
66487;SDS011;53304;54.550;18.526;2023-04-06T03:34:18;6.78;;;2.72;;
66487;SDS011;53304;54.550;18.526;2023-04-06T03:36:43;6.22;;;2.60;;
66487;SDS011;53304;54.550;18.526;2023-04-06T03:39:09;6.47;;;2.65;;
66487;SDS011;53304;54.550;18.526;2023-04-06T03:41:34;9.82;;;3.30;;
66487;SDS011;53304;54.550;18.526;2023-04-06T03:44:00;5.65;;;2.55;;
66487;SDS011;53304;54.550;18.526;2023-04-06T03:46:28;6.05;;;2.63;;
66487;SDS011;53304;54.550;18.526;2023-04-06T03:48:58;5.65;;;2.70;;
66487;SDS011;53304;54.550;18.526;2023-04-06T03:51:26;4.75;;;2.50;;
66487;SDS011;53304;54.550;18.526;2023-04-06T03:53:55;7.55;;;2.80;;
66487;SDS011;53304;54.550;18.526;2023-04-06T03:56:23;5.93;;;2.80;;
66487;SDS011;53304;54.550;18.526;2023-04-06T03:58:48;6.53;;;2.90;;
66487;SDS011;53304;54.550;18.526;2023-04-06T04:01:17;6.05;;;2.60;;
66487;SDS011;53304;54.550;18.526;2023-04-06T04:03:45;6.00;;;2.72;;
66487;SDS011;53304;54.550;18.526;2023-04-06T04:06:13;7.50;;;2.58;;
66487;SDS011;53304;54.550;18.526;2023-04-06T04:08:38;7.38;;;2.65;;
66487;SDS011;53304;54.550;18.526;2023-04-06T04:11:06;6.82;;;3.10;;
66487;SDS011;53304;54.550;18.526;2023-04-06T04:13:31;6.10;;;2.50;;
66487;SDS011;53304;54.550;18.526;2023-04-06T04:15:57;5.25;;;2.35;;
66487;SDS011;53304;54.550;18.526;2023-04-06T04:18:22;7.20;;;2.50;;
66487;SDS011;53304;54.550;18.526;2023-04-06T04:20:50;5.93;;;2.70;;
66487;SDS011;53304;54.550;18.526;2023-04-06T04:23:16;5.18;;;2.50;;
66487;SDS011;53304;54.550;18.526;2023-04-06T04:25:42;7.32;;;2.50;;
66487;SDS011;53304;54.550;18.526;2023-04-06T04:28:13;5.13;;;2.58;;
66487;SDS011;53304;54.550;18.526;2023-04-06T04:30:38;6.45;;;2.55;;
66487;SDS011;53304;54.550;18.526;2023-04-06T04:33:06;4.97;;;2.30;;
66487;SDS011;53304;54.550;18.526;2023-04-06T04:35:34;6.63;;;2.67;;
66487;SDS011;53304;54.550;18.526;2023-04-06T04:38:00;5.32;;;2.63;;
66487;SDS011;53304;54.550;18.526;2023-04-06T04:40:25;7.10;;;2.83;;
66487;SDS011;53304;54.550;18.526;2023-04-06T04:42:50;5.25;;;2.42;;
66487;SDS011;53304;54.550;18.526;2023-04-06T04:45:16;6.82;;;2.70;;
66487;SDS011;53304;54.550;18.526;2023-04-06T04:47:41;5.68;;;2.72;;
66487;SDS011;53304;54.550;18.526;2023-04-06T04:50:09;5.93;;;2.63;;
66487;SDS011;53304;54.550;18.526;2023-04-06T04:52:35;6.43;;;2.65;;
66487;SDS011;53304;54.550;18.526;2023-04-06T04:55:01;5.60;;;2.65;;
66487;SDS011;53304;54.550;18.526;2023-04-06T04:57:29;4.93;;;2.35;;
66487;SDS011;53304;54.550;18.526;2023-04-06T04:59:55;5.65;;;2.70;;
66487;SDS011;53304;54.550;18.526;2023-04-06T05:02:20;6.10;;;3.08;;
66487;SDS011;53304;54.550;18.526;2023-04-06T05:04:48;6.13;;;2.78;;
66487;SDS011;53304;54.550;18.526;2023-04-06T05:07:13;5.00;;;2.55;;
66487;SDS011;53304;54.550;18.526;2023-04-06T05:09:43;5.85;;;2.90;;
66487;SDS011;53304;54.550;18.526;2023-04-06T05:12:09;10.85;;;3.00;;
66487;SDS011;53304;54.550;18.526;2023-04-06T05:14:35;6.57;;;3.03;;
66487;SDS011;53304;54.550;18.526;2023-04-06T05:17:05;8.38;;;3.25;;
66487;SDS011;53304;54.550;18.526;2023-04-06T05:19:32;6.95;;;2.88;;
66487;SDS011;53304;54.550;18.526;2023-04-06T05:21:58;6.35;;;2.88;;
66487;SDS011;53304;54.550;18.526;2023-04-06T05:24:26;6.13;;;3.08;;
66487;SDS011;53304;54.550;18.526;2023-04-06T05:26:53;7.45;;;3.33;;
66487;SDS011;53304;54.550;18.526;2023-04-06T05:29:19;12.88;;;3.92;;
66487;SDS011;53304;54.550;18.526;2023-04-06T05:31:45;8.05;;;2.95;;
66487;SDS011;53304;54.550;18.526;2023-04-06T05:34:13;10.38;;;3.47;;
66487;SDS011;53304;54.550;18.526;2023-04-06T05:36:38;11.27;;;3.30;;
66487;SDS011;53304;54.550;18.526;2023-04-06T05:39:06;7.85;;;3.22;;
66487;SDS011;53304;54.550;18.526;2023-04-06T05:41:34;17.30;;;4.18;;
66487;SDS011;53304;54.550;18.526;2023-04-06T05:43:59;18.52;;;4.43;;
66487;SDS011;53304;54.550;18.526;2023-04-06T05:46:25;14.13;;;3.80;;
66487;SDS011;53304;54.550;18.526;2023-04-06T05:48:50;13.98;;;3.97;;
66487;SDS011;53304;54.550;18.526;2023-04-06T05:51:15;18.92;;;5.13;;
66487;SDS011;53304;54.550;18.526;2023-04-06T05:53:41;12.18;;;3.55;;
66487;SDS011;53304;54.550;18.526;2023-04-06T05:56:08;11.18;;;4.03;;
66487;SDS011;53304;54.550;18.526;2023-04-06T05:58:34;11.23;;;3.47;;
66487;SDS011;53304;54.550;18.526;2023-04-06T06:01:00;11.70;;;4.20;;
66487;SDS011;53304;54.550;18.526;2023-04-06T06:03:28;16.25;;;4.40;;
66487;SDS011;53304;54.550;18.526;2023-04-06T06:05:59;11.15;;;3.95;;
66487;SDS011;53304;54.550;18.526;2023-04-06T06:08:28;10.18;;;4.30;;
66487;SDS011;53304;54.550;18.526;2023-04-06T06:10:53;12.05;;;4.45;;
66487;SDS011;53304;54.550;18.526;2023-04-06T06:13:19;11.70;;;4.43;;
66487;SDS011;53304;54.550;18.526;2023-04-06T06:15:47;11.38;;;4.30;;
66487;SDS011;53304;54.550;18.526;2023-04-06T06:18:17;11.25;;;5.00;;
66487;SDS011;53304;54.550;18.526;2023-04-06T06:20:43;10.57;;;5.10;;
66487;SDS011;53304;54.550;18.526;2023-04-06T06:23:08;12.43;;;5.35;;
66487;SDS011;53304;54.550;18.526;2023-04-06T06:25:36;13.48;;;4.90;;
66487;SDS011;53304;54.550;18.526;2023-04-06T06:28:01;11.55;;;5.22;;
66487;SDS011;53304;54.550;18.526;2023-04-06T06:30:29;14.15;;;5.13;;
66487;SDS011;53304;54.550;18.526;2023-04-06T06:32:57;13.88;;;5.32;;
66487;SDS011;53304;54.550;18.526;2023-04-06T06:35:25;13.32;;;5.55;;
66487;SDS011;53304;54.550;18.526;2023-04-06T06:37:53;10.88;;;5.30;;
66487;SDS011;53304;54.550;18.526;2023-04-06T06:40:20;13.48;;;5.95;;
66487;SDS011;53304;54.550;18.526;2023-04-06T06:42:48;22.55;;;6.57;;
66487;SDS011;53304;54.550;18.526;2023-04-06T06:45:14;24.30;;;6.68;;
66487;SDS011;53304;54.550;18.526;2023-04-06T06:47:44;12.82;;;5.78;;
66487;SDS011;53304;54.550;18.526;2023-04-06T06:50:09;12.95;;;5.72;;
66487;SDS011;53304;54.550;18.526;2023-04-06T06:52:35;13.63;;;5.55;;
66487;SDS011;53304;54.550;18.526;2023-04-06T06:55:00;11.82;;;5.38;;
66487;SDS011;53304;54.550;18.526;2023-04-06T06:57:28;10.82;;;5.53;;
66487;SDS011;53304;54.550;18.526;2023-04-06T06:59:54;12.45;;;4.75;;
66487;SDS011;53304;54.550;18.526;2023-04-06T07:02:22;10.73;;;4.75;;
66487;SDS011;53304;54.550;18.526;2023-04-06T07:04:48;13.07;;;4.57;;
66487;SDS011;53304;54.550;18.526;2023-04-06T07:07:14;12.68;;;4.57;;
66487;SDS011;53304;54.550;18.526;2023-04-06T07:09:40;15.15;;;5.25;;
66487;SDS011;53304;54.550;18.526;2023-04-06T07:12:07;13.13;;;4.50;;
66487;SDS011;53304;54.550;18.526;2023-04-06T07:14:38;12.25;;;4.30;;
66487;SDS011;53304;54.550;18.526;2023-04-06T07:17:03;14.00;;;4.13;;
66487;SDS011;53304;54.550;18.526;2023-04-06T07:19:29;8.88;;;4.07;;
66487;SDS011;53304;54.550;18.526;2023-04-06T07:21:54;9.13;;;3.75;;
66487;SDS011;53304;54.550;18.526;2023-04-06T07:24:21;11.05;;;4.18;;
66487;SDS011;53304;54.550;18.526;2023-04-06T07:26:49;13.88;;;4.47;;
66487;SDS011;53304;54.550;18.526;2023-04-06T07:29:14;20.00;;;5.05;;
66487;SDS011;53304;54.550;18.526;2023-04-06T07:31:43;16.98;;;5.03;;
66487;SDS011;53304;54.550;18.526;2023-04-06T07:34:10;16.45;;;4.70;;
66487;SDS011;53304;54.550;18.526;2023-04-06T07:36:36;13.23;;;4.07;;
66487;SDS011;53304;54.550;18.526;2023-04-06T07:39:01;8.57;;;3.70;;
66487;SDS011;53304;54.550;18.526;2023-04-06T07:41:29;12.38;;;4.13;;
66487;SDS011;53304;54.550;18.526;2023-04-06T07:43:57;8.10;;;3.78;;
66487;SDS011;53304;54.550;18.526;2023-04-06T07:46:29;11.20;;;3.80;;
66487;SDS011;53304;54.550;18.526;2023-04-06T07:48:56;8.18;;;3.47;;
66487;SDS011;53304;54.550;18.526;2023-04-06T07:51:24;11.50;;;3.92;;
66487;SDS011;53304;54.550;18.526;2023-04-06T07:53:52;8.60;;;3.25;;
66487;SDS011;53304;54.550;18.526;2023-04-06T07:56:18;8.90;;;3.40;;
66487;SDS011;53304;54.550;18.526;2023-04-06T07:58:48;7.40;;;3.72;;
66487;SDS011;53304;54.550;18.526;2023-04-06T08:01:16;8.73;;;3.47;;
66487;SDS011;53304;54.550;18.526;2023-04-06T08:03:43;10.15;;;3.40;;
66487;SDS011;53304;54.550;18.526;2023-04-06T08:06:11;7.63;;;3.30;;
66487;SDS011;53304;54.550;18.526;2023-04-06T08:08:39;6.43;;;2.90;;
66487;SDS011;53304;54.550;18.526;2023-04-06T08:11:05;12.68;;;3.25;;
66487;SDS011;53304;54.550;18.526;2023-04-06T08:13:30;7.70;;;2.97;;
66487;SDS011;53304;54.550;18.526;2023-04-06T08:15:56;7.35;;;3.15;;
66487;SDS011;53304;54.550;18.526;2023-04-06T08:18:23;6.40;;;2.65;;
66487;SDS011;53304;54.550;18.526;2023-04-06T08:20:49;7.45;;;2.70;;
66487;SDS011;53304;54.550;18.526;2023-04-06T08:23:17;7.93;;;3.03;;
66487;SDS011;53304;54.550;18.526;2023-04-06T08:25:42;5.93;;;2.47;;
66487;SDS011;53304;54.550;18.526;2023-04-06T08:28:08;5.55;;;2.50;;
66487;SDS011;53304;54.550;18.526;2023-04-06T08:30:34;5.93;;;2.60;;
66487;SDS011;53304;54.550;18.526;2023-04-06T08:33:00;7.15;;;2.60;;
66487;SDS011;53304;54.550;18.526;2023-04-06T08:35:30;6.97;;;2.40;;
66487;SDS011;53304;54.550;18.526;2023-04-06T08:37:58;5.15;;;2.10;;
66487;SDS011;53304;54.550;18.526;2023-04-06T08:40:24;5.95;;;2.22;;
66487;SDS011;53304;54.550;18.526;2023-04-06T08:42:49;6.47;;;2.00;;
66487;SDS011;53304;54.550;18.526;2023-04-06T08:45:19;4.47;;;1.85;;
66487;SDS011;53304;54.550;18.526;2023-04-06T08:47:46;5.03;;;1.95;;
66487;SDS011;53304;54.550;18.526;2023-04-06T08:50:14;5.18;;;2.13;;
66487;SDS011;53304;54.550;18.526;2023-04-06T08:52:44;5.07;;;2.30;;
66487;SDS011;53304;54.550;18.526;2023-04-06T08:55:14;3.72;;;2.00;;
66487;SDS011;53304;54.550;18.526;2023-04-06T08:57:40;4.43;;;1.83;;
66487;SDS011;53304;54.550;18.526;2023-04-06T09:00:07;6.00;;;1.90;;
66487;SDS011;53304;54.550;18.526;2023-04-06T09:02:33;5.57;;;1.88;;
66487;SDS011;53304;54.550;18.526;2023-04-06T09:05:02;5.95;;;1.90;;
66487;SDS011;53304;54.550;18.526;2023-04-06T09:07:30;4.80;;;2.05;;
66487;SDS011;53304;54.550;18.526;2023-04-06T09:09:57;4.88;;;2.00;;
66487;SDS011;53304;54.550;18.526;2023-04-06T09:12:23;3.60;;;1.60;;
66487;SDS011;53304;54.550;18.526;2023-04-06T09:14:50;4.03;;;1.58;;
66487;SDS011;53304;54.550;18.526;2023-04-06T09:17:19;3.60;;;1.70;;
66487;SDS011;53304;54.550;18.526;2023-04-06T09:19:50;3.40;;;1.70;;
66487;SDS011;53304;54.550;18.526;2023-04-06T09:22:16;4.20;;;1.90;;
66487;SDS011;53304;54.550;18.526;2023-04-06T09:24:46;3.05;;;1.35;;
66487;SDS011;53304;54.550;18.526;2023-04-06T09:27:15;3.47;;;1.55;;
66487;SDS011;53304;54.550;18.526;2023-04-06T09:29:43;3.63;;;1.70;;
66487;SDS011;53304;54.550;18.526;2023-04-06T09:32:09;3.70;;;1.60;;
66487;SDS011;53304;54.550;18.526;2023-04-06T09:34:44;3.78;;;1.60;;
66487;SDS011;53304;54.550;18.526;2023-04-06T09:37:19;3.50;;;1.60;;
66487;SDS011;53304;54.550;18.526;2023-04-06T09:39:47;2.65;;;1.40;;
66487;SDS011;53304;54.550;18.526;2023-04-06T09:44:54;2.92;;;1.35;;
66487;SDS011;53304;54.550;18.526;2023-04-06T09:47:19;4.25;;;1.70;;
66487;SDS011;53304;54.550;18.526;2023-04-06T09:49:48;2.15;;;1.20;;
66487;SDS011;53304;54.550;18.526;2023-04-06T09:52:15;3.40;;;1.48;;
66487;SDS011;53304;54.550;18.526;2023-04-06T09:54:42;2.97;;;1.35;;
66487;SDS011;53304;54.550;18.526;2023-04-06T10:00:05;3.22;;;1.20;;
66487;SDS011;53304;54.550;18.526;2023-04-06T10:02:48;3.65;;;1.40;;
66487;SDS011;53304;54.550;18.526;2023-04-06T10:08:15;2.40;;;1.20;;
66487;SDS011;53304;54.550;18.526;2023-04-06T10:10:41;2.33;;;1.20;;
66487;SDS011;53304;54.550;18.526;2023-04-06T10:13:07;3.78;;;1.10;;
66487;SDS011;53304;54.550;18.526;2023-04-06T10:15:32;2.17;;;1.00;;
66487;SDS011;53304;54.550;18.526;2023-04-06T10:18:01;2.83;;;1.30;;
66487;SDS011;53304;54.550;18.526;2023-04-06T10:23:06;4.60;;;1.20;;
66487;SDS011;53304;54.550;18.526;2023-04-06T10:25:35;3.33;;;1.20;;
66487;SDS011;53304;54.550;18.526;2023-04-06T10:28:04;3.08;;;1.20;;
66487;SDS011;53304;54.550;18.526;2023-04-06T10:30:33;2.90;;;1.40;;
66487;SDS011;53304;54.550;18.526;2023-04-06T10:33:13;4.28;;;1.95;;
66487;SDS011;53304;54.550;18.526;2023-04-06T10:35:39;4.47;;;2.30;;
66487;SDS011;53304;54.550;18.526;2023-04-06T10:38:07;5.15;;;2.30;;
66487;SDS011;53304;54.550;18.526;2023-04-06T10:40:35;4.00;;;1.95;;
66487;SDS011;53304;54.550;18.526;2023-04-06T10:43:08;3.38;;;1.70;;
66487;SDS011;53304;54.550;18.526;2023-04-06T10:45:34;4.15;;;1.98;;
66487;SDS011;53304;54.550;18.526;2023-04-06T10:48:16;4.15;;;1.63;;
66487;SDS011;53304;54.550;18.526;2023-04-06T10:50:47;3.58;;;1.65;;
66487;SDS011;53304;54.550;18.526;2023-04-06T10:53:21;4.00;;;1.60;;
66487;SDS011;53304;54.550;18.526;2023-04-06T10:55:49;3.90;;;1.65;;
66487;SDS011;53304;54.550;18.526;2023-04-06T10:58:15;3.65;;;1.63;;
66487;SDS011;53304;54.550;18.526;2023-04-06T11:00:49;4.20;;;1.35;;
66487;SDS011;53304;54.550;18.526;2023-04-06T11:03:15;4.50;;;1.55;;
66487;SDS011;53304;54.550;18.526;2023-04-06T11:05:44;2.55;;;1.30;;
66487;SDS011;53304;54.550;18.526;2023-04-06T11:08:22;3.25;;;1.30;;
66487;SDS011;53304;54.550;18.526;2023-04-06T11:10:50;2.58;;;1.30;;
66487;SDS011;53304;54.550;18.526;2023-04-06T11:13:15;2.47;;;1.38;;
66487;SDS011;53304;54.550;18.526;2023-04-06T11:15:43;2.28;;;1.27;;
66487;SDS011;53304;54.550;18.526;2023-04-06T11:18:11;2.60;;;1.40;;
66487;SDS011;53304;54.550;18.526;2023-04-06T11:20:39;4.25;;;1.50;;
66487;SDS011;53304;54.550;18.526;2023-04-06T11:23:21;2.85;;;1.45;;
66487;SDS011;53304;54.550;18.526;2023-04-06T11:25:52;2.38;;;1.13;;
66487;SDS011;53304;54.550;18.526;2023-04-06T11:28:20;2.92;;;1.30;;
66487;SDS011;53304;54.550;18.526;2023-04-06T11:30:47;3.38;;;1.20;;
66487;SDS011;53304;54.550;18.526;2023-04-06T11:33:20;2.60;;;1.40;;
66487;SDS011;53304;54.550;18.526;2023-04-06T11:35:46;2.70;;;1.30;;
66487;SDS011;53304;54.550;18.526;2023-04-06T11:38:14;2.58;;;1.35;;
66487;SDS011;53304;54.550;18.526;2023-04-06T11:40:44;3.53;;;1.40;;
66487;SDS011;53304;54.550;18.526;2023-04-06T11:43:13;1.83;;;1.08;;
66487;SDS011;53304;54.550;18.526;2023-04-06T11:45:42;2.60;;;1.30;;
66487;SDS011;53304;54.550;18.526;2023-04-06T11:48:16;3.28;;;1.10;;
66487;SDS011;53304;54.550;18.526;2023-04-06T11:50:43;3.42;;;1.35;;
66487;SDS011;53304;54.550;18.526;2023-04-06T11:53:11;1.80;;;1.10;;
66487;SDS011;53304;54.550;18.526;2023-04-06T11:55:37;2.53;;;1.17;;
66487;SDS011;53304;54.550;18.526;2023-04-06T11:58:03;3.03;;;1.10;;
66487;SDS011;53304;54.550;18.526;2023-04-06T12:00:29;2.33;;;1.10;;
66487;SDS011;53304;54.550;18.526;2023-04-06T12:02:59;2.80;;;1.40;;
66487;SDS011;53304;54.550;18.526;2023-04-06T12:05:25;2.67;;;1.20;;
66487;SDS011;53304;54.550;18.526;2023-04-06T12:07:50;2.88;;;1.15;;
66487;SDS011;53304;54.550;18.526;2023-04-06T12:10:20;1.98;;;1.13;;
66487;SDS011;53304;54.550;18.526;2023-04-06T12:12:46;2.42;;;1.10;;
66487;SDS011;53304;54.550;18.526;2023-04-06T12:15:11;2.95;;;1.13;;
66487;SDS011;53304;54.550;18.526;2023-04-06T12:17:36;2.08;;;1.00;;
66487;SDS011;53304;54.550;18.526;2023-04-06T12:20:02;4.10;;;1.15;;
66487;SDS011;53304;54.550;18.526;2023-04-06T12:22:28;4.43;;;1.23;;
66487;SDS011;53304;54.550;18.526;2023-04-06T12:24:53;2.25;;;1.10;;
66487;SDS011;53304;54.550;18.526;2023-04-06T12:27:21;3.25;;;1.30;;
66487;SDS011;53304;54.550;18.526;2023-04-06T12:29:49;2.45;;;1.40;;
66487;SDS011;53304;54.550;18.526;2023-04-06T12:32:17;1.63;;;1.00;;
66487;SDS011;53304;54.550;18.526;2023-04-06T12:34:45;1.75;;;1.00;;
66487;SDS011;53304;54.550;18.526;2023-04-06T12:37:12;2.05;;;1.20;;
66487;SDS011;53304;54.550;18.526;2023-04-06T12:39:42;1.55;;;0.90;;
66487;SDS011;53304;54.550;18.526;2023-04-06T12:42:11;2.22;;;1.10;;
66487;SDS011;53304;54.550;18.526;2023-04-06T12:44:38;1.67;;;0.90;;
66487;SDS011;53304;54.550;18.526;2023-04-06T12:47:04;2.45;;;0.95;;
66487;SDS011;53304;54.550;18.526;2023-04-06T12:49:32;2.25;;;1.00;;
66487;SDS011;53304;54.550;18.526;2023-04-06T12:52:02;1.88;;;1.00;;
66487;SDS011;53304;54.550;18.526;2023-04-06T12:54:28;1.52;;;0.80;;
66487;SDS011;53304;54.550;18.526;2023-04-06T12:56:58;1.80;;;0.90;;
66487;SDS011;53304;54.550;18.526;2023-04-06T12:59:26;3.75;;;1.20;;
66487;SDS011;53304;54.550;18.526;2023-04-06T13:02:02;2.30;;;1.02;;
66487;SDS011;53304;54.550;18.526;2023-04-06T13:04:28;2.10;;;0.90;;
66487;SDS011;53304;54.550;18.526;2023-04-06T13:06:57;2.15;;;0.98;;
66487;SDS011;53304;54.550;18.526;2023-04-06T13:09:22;2.33;;;1.13;;
66487;SDS011;53304;54.550;18.526;2023-04-06T13:11:50;1.27;;;0.90;;
66487;SDS011;53304;54.550;18.526;2023-04-06T13:14:18;1.17;;;0.88;;
66487;SDS011;53304;54.550;18.526;2023-04-06T13:16:46;1.50;;;0.90;;
66487;SDS011;53304;54.550;18.526;2023-04-06T13:19:11;1.67;;;0.80;;
66487;SDS011;53304;54.550;18.526;2023-04-06T13:21:40;2.05;;;0.90;;
66487;SDS011;53304;54.550;18.526;2023-04-06T13:24:06;1.58;;;0.93;;
66487;SDS011;53304;54.550;18.526;2023-04-06T13:26:33;1.30;;;0.85;;
66487;SDS011;53304;54.550;18.526;2023-04-06T13:28:59;0.95;;;0.80;;
66487;SDS011;53304;54.550;18.526;2023-04-06T13:31:25;1.45;;;0.80;;
66487;SDS011;53304;54.550;18.526;2023-04-06T13:33:51;1.33;;;0.85;;
66487;SDS011;53304;54.550;18.526;2023-04-06T13:36:21;1.80;;;0.98;;
66487;SDS011;53304;54.550;18.526;2023-04-06T13:38:47;2.35;;;0.90;;
66487;SDS011;53304;54.550;18.526;2023-04-06T13:41:21;1.45;;;0.80;;
66487;SDS011;53304;54.550;18.526;2023-04-06T13:43:48;2.90;;;0.82;;
66487;SDS011;53304;54.550;18.526;2023-04-06T13:46:14;0.95;;;0.80;;
66487;SDS011;53304;54.550;18.526;2023-04-06T13:48:40;1.50;;;0.80;;
66487;SDS011;53304;54.550;18.526;2023-04-06T13:51:11;3.58;;;1.00;;
66487;SDS011;53304;54.550;18.526;2023-04-06T13:53:38;1.10;;;0.73;;
66487;SDS011;53304;54.550;18.526;2023-04-06T13:56:04;2.88;;;0.90;;
66487;SDS011;53304;54.550;18.526;2023-04-06T13:58:30;2.65;;;1.00;;
66487;SDS011;53304;54.550;18.526;2023-04-06T14:01:01;2.45;;;0.73;;
66487;SDS011;53304;54.550;18.526;2023-04-06T14:03:34;1.58;;;0.80;;
66487;SDS011;53304;54.550;18.526;2023-04-06T14:06:00;0.95;;;0.70;;
66487;SDS011;53304;54.550;18.526;2023-04-06T14:08:26;1.48;;;0.90;;
66487;SDS011;53304;54.550;18.526;2023-04-06T14:10:54;1.92;;;0.90;;
66487;SDS011;53304;54.550;18.526;2023-04-06T14:13:21;1.63;;;0.85;;
66487;SDS011;53304;54.550;18.526;2023-04-06T14:15:52;0.80;;;0.60;;
66487;SDS011;53304;54.550;18.526;2023-04-06T14:18:22;2.83;;;1.00;;
66487;SDS011;53304;54.550;18.526;2023-04-06T14:20:54;1.55;;;0.80;;
66487;SDS011;53304;54.550;18.526;2023-04-06T14:23:22;1.05;;;0.90;;
66487;SDS011;53304;54.550;18.526;2023-04-06T14:25:50;1.95;;;0.80;;
66487;SDS011;53304;54.550;18.526;2023-04-06T14:28:16;1.95;;;0.90;;
66487;SDS011;53304;54.550;18.526;2023-04-06T14:30:41;1.17;;;0.70;;
66487;SDS011;53304;54.550;18.526;2023-04-06T14:33:09;1.17;;;0.70;;
66487;SDS011;53304;54.550;18.526;2023-04-06T14:35:37;1.40;;;0.80;;
66487;SDS011;53304;54.550;18.526;2023-04-06T14:38:03;2.80;;;0.90;;
66487;SDS011;53304;54.550;18.526;2023-04-06T14:40:29;1.58;;;0.80;;
66487;SDS011;53304;54.550;18.526;2023-04-06T14:42:57;2.20;;;0.90;;
66487;SDS011;53304;54.550;18.526;2023-04-06T14:45:22;1.35;;;1.00;;